TAX09JF EGPH-EGSS
Flight info
| Callsign | TAX09JF |
|---|---|
| Flight time | 0h 55m |
| Altitude | 31000 |
| Route | GOSAM P600 FENIK L612 NAVSO DCT AKOMU DCT VAMEB UL612 LISTO |
| Aircraft | B738/M-SDE2E3FGHIRWXY/LB1 |
Departure
| Time | 2026-04-21 16:04 |
|---|---|
| Airport | Edinburgh Airport (EGPH) |
Arrival
| Time | 2026-04-21 16:59 |
|---|---|
| Airport | London Stansted Airport (EGSS) |
| Time | Latitude | Longitude | Altitude | Speed | Heading |
|---|---|---|---|---|---|
| 2026-04-21 15:38 | 55.94702 | -3.36608 | 115 ft | 0 kts | 89° |
| 2026-04-21 15:55 | 55.94701 | -3.36635 | 111 ft | 4 kts | 84° |
| 2026-04-21 15:55 | 55.94697 | -3.36681 | 113 ft | 4 kts | 70° |
| 2026-04-21 15:55 | 55.94685 | -3.36721 | 111 ft | 4 kts | 39° |
| 2026-04-21 15:56 | 55.94668 | -3.36735 | 112 ft | 1 kts | 359° |
| 2026-04-21 15:56 | 55.94664 | -3.36735 | 112 ft | 0 kts | 359° |
| 2026-04-21 15:58 | 55.94665 | -3.36735 | 112 ft | 1 kts | 359° |
| 2026-04-21 15:58 | 55.94732 | -3.36737 | 115 ft | 19 kts | 353° |
| 2026-04-21 15:58 | 55.94865 | -3.36786 | 115 ft | 14 kts | 349° |
| 2026-04-21 15:58 | 55.94923 | -3.36889 | 115 ft | 13 kts | 255° |
| 2026-04-21 15:59 | 55.94876 | -3.37043 | 114 ft | 18 kts | 240° |
| 2026-04-21 15:59 | 55.94791 | -3.37293 | 115 ft | 29 kts | 240° |
| 2026-04-21 15:59 | 55.94684 | -3.37608 | 113 ft | 29 kts | 240° |
| 2026-04-21 15:59 | 55.94582 | -3.37912 | 113 ft | 28 kts | 238° |
| 2026-04-21 16:00 | 55.94483 | -3.38199 | 114 ft | 26 kts | 238° |
| 2026-04-21 16:00 | 55.94392 | -3.38464 | 112 ft | 24 kts | 239° |
| 2026-04-21 16:00 | 55.94310 | -3.38710 | 113 ft | 22 kts | 239° |
| 2026-04-21 16:00 | 55.94284 | -3.38854 | 115 ft | 6 kts | 298° |
| 2026-04-21 16:01 | 55.94286 | -3.38858 | 115 ft | 1 kts | 306° |
| 2026-04-21 16:01 | 55.94314 | -3.38895 | 113 ft | 9 kts | 326° |
| 2026-04-21 16:01 | 55.94327 | -3.38911 | 115 ft | 1 kts | 329° |
| 2026-04-21 16:01 | 55.94328 | -3.38912 | 115 ft | 0 kts | 329° |
| 2026-04-21 16:02 | 55.94341 | -3.38925 | 114 ft | 7 kts | 329° |
| 2026-04-21 16:02 | 55.94410 | -3.38963 | 113 ft | 12 kts | 24° |
| 2026-04-21 16:03 | 55.94440 | -3.38894 | 113 ft | 0 kts | 58° |
| 2026-04-21 16:03 | 55.94466 | -3.38817 | 111 ft | 26 kts | 59° |
| 2026-04-21 16:04 | 55.94708 | -3.38106 | 113 ft | 106 kts | 59° |
| 2026-04-21 16:04 | 55.95194 | -3.36696 | 400 ft | 144 kts | 57° |
| 2026-04-21 16:04 | 55.95723 | -3.35269 | 1480 ft | 141 kts | 57° |
| 2026-04-21 16:04 | 55.96286 | -3.33752 | 2145 ft | 162 kts | 50° |
| 2026-04-21 16:05 | 55.97109 | -3.32078 | 2481 ft | 195 kts | 66° |
| 2026-04-21 16:05 | 55.97169 | -3.29628 | 2832 ft | 216 kts | 110° |
| 2026-04-21 16:05 | 55.96141 | -3.27690 | 3632 ft | 225 kts | 150° |
| 2026-04-21 16:05 | 55.94697 | -3.26575 | 4370 ft | 228 kts | 150° |
| 2026-04-21 16:06 | 55.93750 | -3.25746 | 4827 ft | 230 kts | 149° |
| 2026-04-21 16:06 | 55.91813 | -3.24016 | 5757 ft | 235 kts | 149° |
| 2026-04-21 16:06 | 55.90315 | -3.22679 | 6254 ft | 250 kts | 149° |
| 2026-04-21 16:06 | 55.88714 | -3.21257 | 6919 ft | 262 kts | 150° |
| 2026-04-21 16:07 | 55.87106 | -3.19841 | 7883 ft | 263 kts | 150° |
| 2026-04-21 16:07 | 55.85460 | -3.18397 | 8854 ft | 266 kts | 150° |
| 2026-04-21 16:07 | 55.83788 | -3.16936 | 9771 ft | 270 kts | 150° |
| 2026-04-21 16:07 | 55.82086 | -3.15452 | 10682 ft | 274 kts | 150° |
| 2026-04-21 16:08 | 55.79072 | -3.12821 | 11372 ft | 309 kts | 150° |
| 2026-04-21 16:08 | 55.77107 | -3.11114 | 12078 ft | 318 kts | 151° |
| 2026-04-21 16:08 | 55.75080 | -3.09360 | 12932 ft | 322 kts | 151° |
| 2026-04-21 16:09 | 55.73061 | -3.07616 | 13817 ft | 325 kts | 150° |
| 2026-04-21 16:09 | 55.71043 | -3.05876 | 14623 ft | 329 kts | 150° |
| 2026-04-21 16:09 | 55.68968 | -3.04088 | 15356 ft | 333 kts | 150° |
| 2026-04-21 16:09 | 55.66875 | -3.02286 | 16149 ft | 337 kts | 151° |
| 2026-04-21 16:10 | 55.64754 | -3.00463 | 16912 ft | 340 kts | 151° |
| 2026-04-21 16:10 | 55.62609 | -2.98621 | 17644 ft | 345 kts | 151° |
| 2026-04-21 16:10 | 55.60434 | -2.96756 | 18397 ft | 349 kts | 151° |
| 2026-04-21 16:10 | 55.58231 | -2.94868 | 19077 ft | 354 kts | 151° |
| 2026-04-21 16:11 | 55.56001 | -2.92959 | 19707 ft | 358 kts | 152° |
| 2026-04-21 16:11 | 55.53752 | -2.91038 | 20387 ft | 360 kts | 152° |
| 2026-04-21 16:11 | 55.51486 | -2.89104 | 21070 ft | 363 kts | 152° |
| 2026-04-21 16:11 | 55.49201 | -2.87158 | 21715 ft | 366 kts | 151° |
| 2026-04-21 16:12 | 55.46910 | -2.85208 | 22506 ft | 366 kts | 152° |
| 2026-04-21 16:12 | 55.44605 | -2.83250 | 23186 ft | 367 kts | 152° |
| 2026-04-21 16:12 | 55.42296 | -2.81289 | 23796 ft | 371 kts | 152° |
| 2026-04-21 16:12 | 55.39959 | -2.79306 | 24234 ft | 378 kts | 153° |
| 2026-04-21 16:13 | 55.37576 | -2.77287 | 24722 ft | 381 kts | 153° |
| 2026-04-21 16:13 | 55.35190 | -2.75272 | 25399 ft | 376 kts | 152° |
| 2026-04-21 16:13 | 55.32858 | -2.73307 | 26267 ft | 369 kts | 152° |
| 2026-04-21 16:13 | 55.30529 | -2.71341 | 26713 ft | 374 kts | 153° |
| 2026-04-21 16:14 | 55.28165 | -2.69348 | 27126 ft | 379 kts | 153° |
| 2026-04-21 16:14 | 55.25787 | -2.67346 | 27681 ft | 380 kts | 153° |
| 2026-04-21 16:14 | 55.23420 | -2.65357 | 28383 ft | 376 kts | 154° |
| 2026-04-21 16:14 | 55.21045 | -2.63363 | 28823 ft | 380 kts | 154° |
| 2026-04-21 16:15 | 55.18655 | -2.61360 | 29343 ft | 382 kts | 154° |
| 2026-04-21 16:15 | 55.13857 | -2.57347 | 29453 ft | 381 kts | 154° |
| 2026-04-21 16:16 | 55.09067 | -2.53351 | 29464 ft | 381 kts | 154° |
| 2026-04-21 16:16 | 55.04275 | -2.49366 | 29462 ft | 382 kts | 154° |
| 2026-04-21 16:17 | 54.99476 | -2.45384 | 29465 ft | 382 kts | 154° |
| 2026-04-21 16:17 | 54.94671 | -2.41407 | 29453 ft | 383 kts | 155° |
| 2026-04-21 16:18 | 54.89847 | -2.37427 | 29464 ft | 385 kts | 155° |
| 2026-04-21 16:18 | 54.85001 | -2.33439 | 29468 ft | 386 kts | 155° |
| 2026-04-21 16:19 | 54.80169 | -2.29472 | 29464 ft | 387 kts | 155° |
| 2026-04-21 16:19 | 54.75298 | -2.25485 | 29460 ft | 387 kts | 155° |
| 2026-04-21 16:20 | 54.70404 | -2.21490 | 29444 ft | 396 kts | 157° |
| 2026-04-21 16:20 | 54.65344 | -2.17372 | 29454 ft | 401 kts | 156° |
| 2026-04-21 16:21 | 54.60350 | -2.13314 | 29459 ft | 389 kts | 155° |
| 2026-04-21 16:21 | 54.55515 | -2.09396 | 29452 ft | 381 kts | 155° |
| 2026-04-21 16:22 | 54.50655 | -2.05471 | 29460 ft | 391 kts | 155° |
| 2026-04-21 16:22 | 54.45734 | -2.01507 | 29432 ft | 394 kts | 156° |
| 2026-04-21 16:23 | 54.40694 | -1.97460 | 29430 ft | 403 kts | 156° |
| 2026-04-21 16:23 | 54.35638 | -1.93408 | 29432 ft | 400 kts | 156° |
| 2026-04-21 16:24 | 54.30615 | -1.89393 | 29438 ft | 396 kts | 156° |
| 2026-04-21 16:24 | 54.25619 | -1.85411 | 29458 ft | 396 kts | 156° |
| 2026-04-21 16:25 | 54.20609 | -1.81430 | 29435 ft | 401 kts | 157° |
| 2026-04-21 16:25 | 54.15478 | -1.77366 | 29449 ft | 408 kts | 157° |
| 2026-04-21 16:26 | 54.10318 | -1.73286 | 29421 ft | 410 kts | 157° |
| 2026-04-21 16:26 | 54.05139 | -1.69203 | 29437 ft | 410 kts | 157° |
| 2026-04-21 16:27 | 53.99962 | -1.65132 | 29429 ft | 410 kts | 157° |
| 2026-04-21 16:27 | 53.94783 | -1.61072 | 29417 ft | 410 kts | 158° |
| 2026-04-21 16:28 | 53.89611 | -1.57029 | 29446 ft | 409 kts | 157° |
| 2026-04-21 16:28 | 53.84472 | -1.53022 | 29430 ft | 404 kts | 157° |
| 2026-04-21 16:29 | 53.79387 | -1.49067 | 29421 ft | 402 kts | 157° |
| 2026-04-21 16:29 | 53.74323 | -1.45141 | 29419 ft | 400 kts | 157° |
| 2026-04-21 16:30 | 53.69183 | -1.41169 | 29433 ft | 415 kts | 158° |
| 2026-04-21 16:30 | 53.63881 | -1.37082 | 29406 ft | 418 kts | 158° |
| 2026-04-21 16:31 | 53.58612 | -1.33026 | 29402 ft | 415 kts | 158° |
| 2026-04-21 16:31 | 53.53381 | -1.29011 | 29402 ft | 412 kts | 158° |
| 2026-04-21 16:32 | 53.48173 | -1.25028 | 29308 ft | 410 kts | 158° |
| 2026-04-21 16:32 | 53.45581 | -1.23048 | 29015 ft | 406 kts | 158° |
| 2026-04-21 16:32 | 53.43025 | -1.21099 | 28654 ft | 402 kts | 157° |
| 2026-04-21 16:32 | 53.40496 | -1.19172 | 28321 ft | 397 kts | 157° |
| 2026-04-21 16:33 | 53.37992 | -1.17268 | 27949 ft | 393 kts | 157° |
| 2026-04-21 16:33 | 53.35544 | -1.15410 | 27607 ft | 389 kts | 157° |
| 2026-04-21 16:33 | 53.33062 | -1.13527 | 27242 ft | 386 kts | 156° |
| 2026-04-21 16:33 | 53.30628 | -1.11683 | 26899 ft | 382 kts | 157° |
| 2026-04-21 16:34 | 53.28243 | -1.09879 | 26539 ft | 380 kts | 156° |
| 2026-04-21 16:34 | 53.25812 | -1.08043 | 26192 ft | 376 kts | 156° |
| 2026-04-21 16:34 | 53.23472 | -1.06278 | 25852 ft | 373 kts | 156° |
| 2026-04-21 16:34 | 53.21111 | -1.04499 | 25491 ft | 371 kts | 156° |
| 2026-04-21 16:35 | 53.18765 | -1.02733 | 25165 ft | 368 kts | 156° |
| 2026-04-21 16:35 | 53.16442 | -1.00988 | 24838 ft | 365 kts | 155° |
| 2026-04-21 16:35 | 53.14136 | -0.99258 | 24501 ft | 362 kts | 154° |
| 2026-04-21 16:35 | 53.11851 | -0.97544 | 24171 ft | 359 kts | 154° |
| 2026-04-21 16:36 | 53.09583 | -0.95845 | 23825 ft | 356 kts | 154° |
| 2026-04-21 16:36 | 53.07336 | -0.94162 | 23476 ft | 351 kts | 154° |
| 2026-04-21 16:36 | 53.05124 | -0.92508 | 23140 ft | 347 kts | 154° |
| 2026-04-21 16:36 | 53.02938 | -0.90877 | 22810 ft | 342 kts | 154° |
| 2026-04-21 16:37 | 53.00779 | -0.89266 | 22490 ft | 338 kts | 153° |
| 2026-04-21 16:37 | 52.98645 | -0.87676 | 22151 ft | 335 kts | 154° |
| 2026-04-21 16:37 | 52.96530 | -0.86101 | 21850 ft | 331 kts | 154° |
| 2026-04-21 16:37 | 52.94441 | -0.84548 | 21533 ft | 328 kts | 154° |
| 2026-04-21 16:38 | 52.92365 | -0.83006 | 21224 ft | 325 kts | 154° |
| 2026-04-21 16:38 | 52.90310 | -0.81481 | 20912 ft | 322 kts | 154° |
| 2026-04-21 16:38 | 52.88270 | -0.79969 | 20596 ft | 319 kts | 154° |
| 2026-04-21 16:38 | 52.86249 | -0.78472 | 20288 ft | 318 kts | 154° |
| 2026-04-21 16:39 | 52.84227 | -0.76977 | 19989 ft | 318 kts | 154° |
| 2026-04-21 16:39 | 52.82203 | -0.75482 | 19684 ft | 319 kts | 153° |
| 2026-04-21 16:39 | 52.80185 | -0.73992 | 19379 ft | 317 kts | 153° |
| 2026-04-21 16:39 | 52.78180 | -0.72513 | 19078 ft | 314 kts | 154° |
| 2026-04-21 16:40 | 52.76191 | -0.71049 | 18777 ft | 312 kts | 153° |
| 2026-04-21 16:40 | 52.74212 | -0.69594 | 18446 ft | 310 kts | 153° |
| 2026-04-21 16:40 | 52.72252 | -0.68153 | 18123 ft | 307 kts | 153° |
| 2026-04-21 16:40 | 52.70289 | -0.66711 | 17815 ft | 303 kts | 154° |
| 2026-04-21 16:41 | 52.69013 | -0.65774 | 17615 ft | 303 kts | 154° |
| 2026-04-21 16:41 | 52.66500 | -0.63929 | 17242 ft | 304 kts | 153° |
| 2026-04-21 16:41 | 52.64574 | -0.62516 | 16925 ft | 302 kts | 154° |
| 2026-04-21 16:41 | 52.62663 | -0.61120 | 16638 ft | 299 kts | 152° |
| 2026-04-21 16:42 | 52.60772 | -0.59741 | 16353 ft | 296 kts | 152° |
| 2026-04-21 16:42 | 52.58903 | -0.58377 | 16080 ft | 293 kts | 152° |
| 2026-04-21 16:42 | 52.57046 | -0.57022 | 15783 ft | 291 kts | 152° |
| 2026-04-21 16:42 | 52.55204 | -0.55680 | 15498 ft | 289 kts | 152° |
| 2026-04-21 16:43 | 52.53373 | -0.54347 | 15210 ft | 287 kts | 152° |
| 2026-04-21 16:43 | 52.51546 | -0.53017 | 14940 ft | 288 kts | 152° |
| 2026-04-21 16:43 | 52.49708 | -0.51678 | 14650 ft | 291 kts | 153° |
| 2026-04-21 16:43 | 52.47871 | -0.50341 | 14362 ft | 292 kts | 153° |
| 2026-04-21 16:44 | 52.46019 | -0.48999 | 14055 ft | 290 kts | 152° |
| 2026-04-21 16:44 | 52.44158 | -0.47653 | 13745 ft | 287 kts | 152° |
| 2026-04-21 16:44 | 52.42373 | -0.46362 | 13477 ft | 283 kts | 152° |
| 2026-04-21 16:44 | 52.40564 | -0.45054 | 13192 ft | 280 kts | 152° |
| 2026-04-21 16:45 | 52.38806 | -0.43783 | 12921 ft | 277 kts | 152° |
| 2026-04-21 16:45 | 52.37025 | -0.42493 | 12624 ft | 277 kts | 153° |
| 2026-04-21 16:45 | 52.35243 | -0.41206 | 12331 ft | 280 kts | 153° |
| 2026-04-21 16:45 | 52.33467 | -0.39926 | 12057 ft | 279 kts | 153° |
| 2026-04-21 16:46 | 52.31699 | -0.38653 | 11770 ft | 277 kts | 153° |
| 2026-04-21 16:46 | 52.29939 | -0.37386 | 11497 ft | 275 kts | 153° |
| 2026-04-21 16:46 | 52.28227 | -0.36158 | 11241 ft | 272 kts | 152° |
| 2026-04-21 16:46 | 52.26481 | -0.34904 | 10963 ft | 270 kts | 152° |
| 2026-04-21 16:47 | 52.24762 | -0.33670 | 10686 ft | 268 kts | 152° |
| 2026-04-21 16:47 | 52.23057 | -0.32445 | 10435 ft | 266 kts | 152° |
| 2026-04-21 16:47 | 52.21391 | -0.31254 | 10341 ft | 259 kts | 152° |
| 2026-04-21 16:47 | 52.19728 | -0.30062 | 10066 ft | 262 kts | 152° |
| 2026-04-21 16:48 | 52.18190 | -0.28960 | 9829 ft | 259 kts | 152° |
| 2026-04-21 16:48 | 52.16545 | -0.27784 | 9562 ft | 257 kts | 152° |
| 2026-04-21 16:48 | 52.14915 | -0.26618 | 9303 ft | 257 kts | 152° |
| 2026-04-21 16:48 | 52.13283 | -0.25451 | 9048 ft | 261 kts | 152° |
| 2026-04-21 16:49 | 52.11601 | -0.24251 | 8778 ft | 260 kts | 152° |
| 2026-04-21 16:49 | 52.09976 | -0.23094 | 8534 ft | 257 kts | 152° |
| 2026-04-21 16:49 | 52.08326 | -0.21920 | 8275 ft | 254 kts | 152° |
| 2026-04-21 16:49 | 52.06713 | -0.20774 | 8026 ft | 252 kts | 151° |
| 2026-04-21 16:50 | 52.05115 | -0.19638 | 7770 ft | 250 kts | 151° |
| 2026-04-21 16:50 | 52.03539 | -0.18516 | 7544 ft | 252 kts | 151° |
| 2026-04-21 16:50 | 52.02449 | -0.17740 | 7371 ft | 255 kts | 152° |
| 2026-04-21 16:50 | 52.00297 | -0.16213 | 7025 ft | 253 kts | 152° |
| 2026-04-21 16:51 | 51.99211 | -0.15444 | 6874 ft | 251 kts | 152° |
| 2026-04-21 16:51 | 51.97614 | -0.14314 | 6611 ft | 250 kts | 152° |
| 2026-04-21 16:51 | 51.96059 | -0.13213 | 6381 ft | 247 kts | 151° |
| 2026-04-21 16:51 | 51.94454 | -0.12077 | 6122 ft | 249 kts | 151° |
| 2026-04-21 16:52 | 51.92854 | -0.10945 | 5624 ft | 250 kts | 152° |
| 2026-04-21 16:52 | 51.91283 | -0.09837 | 5338 ft | 243 kts | 152° |
| 2026-04-21 16:52 | 51.89740 | -0.08749 | 5070 ft | 241 kts | 152° |
| 2026-04-21 16:52 | 51.88194 | -0.07656 | 4835 ft | 246 kts | 152° |
| 2026-04-21 16:53 | 51.86606 | -0.06535 | 4671 ft | 247 kts | 152° |
| 2026-04-21 16:53 | 51.85052 | -0.05442 | 4532 ft | 240 kts | 151° |
| 2026-04-21 16:53 | 51.83539 | -0.04382 | 4502 ft | 233 kts | 151° |
| 2026-04-21 16:53 | 51.82076 | -0.03355 | 4413 ft | 226 kts | 150° |
| 2026-04-21 16:54 | 51.80655 | -0.02359 | 4333 ft | 219 kts | 150° |
| 2026-04-21 16:54 | 51.79280 | -0.01394 | 4236 ft | 213 kts | 150° |
| 2026-04-21 16:54 | 51.77921 | -0.00440 | 3984 ft | 213 kts | 148° |
| 2026-04-21 16:54 | 51.76821 | 0.01025 | 3669 ft | 201 kts | 115° |
| 2026-04-21 16:55 | 51.76442 | 0.03085 | 3469 ft | 191 kts | 88° |
| 2026-04-21 16:55 | 51.76668 | 0.05143 | 3246 ft | 189 kts | 68° |
| 2026-04-21 16:55 | 51.77397 | 0.06870 | 3004 ft | 190 kts | 45° |
| 2026-04-21 16:55 | 51.78374 | 0.08293 | 2833 ft | 186 kts | 45° |
| 2026-04-21 16:56 | 51.79309 | 0.09682 | 2603 ft | 181 kts | 45° |
| 2026-04-21 16:56 | 51.80216 | 0.11045 | 2366 ft | 176 kts | 46° |
| 2026-04-21 16:56 | 51.81106 | 0.12384 | 2098 ft | 173 kts | 45° |
| 2026-04-21 16:56 | 51.81952 | 0.13653 | 1909 ft | 162 kts | 46° |
| 2026-04-21 16:57 | 51.82756 | 0.14859 | 1735 ft | 147 kts | 45° |
| 2026-04-21 16:57 | 51.83462 | 0.15918 | 1509 ft | 131 kts | 46° |
| 2026-04-21 16:57 | 51.84111 | 0.16894 | 1355 ft | 127 kts | 47° |
| 2026-04-21 16:57 | 51.84768 | 0.17883 | 1182 ft | 131 kts | 47° |
| 2026-04-21 16:58 | 51.85432 | 0.18888 | 1010 ft | 130 kts | 45° |
| 2026-04-21 16:58 | 51.86121 | 0.19849 | 825 ft | 131 kts | 44° |
| 2026-04-21 16:58 | 51.86795 | 0.20851 | 660 ft | 131 kts | 47° |
| 2026-04-21 16:58 | 51.87456 | 0.21877 | 457 ft | 130 kts | 46° |
| 2026-04-21 16:59 | 51.88091 | 0.22855 | 347 ft | 121 kts | 46° |
| 2026-04-21 16:59 | 51.88622 | 0.23668 | 336 ft | 74 kts | 42° |
| 2026-04-21 16:59 | 51.88899 | 0.24085 | 339 ft | 45 kts | 41° |
| 2026-04-21 16:59 | 51.89123 | 0.24417 | 337 ft | 44 kts | 43° |
| 2026-04-21 17:00 | 51.89350 | 0.24757 | 333 ft | 35 kts | 43° |
| 2026-04-21 17:00 | 51.89490 | 0.25040 | 339 ft | 21 kts | 80° |
| 2026-04-21 17:00 | 51.89489 | 0.25194 | 351 ft | 21 kts | 105° |
| 2026-04-21 17:00 | 51.89463 | 0.25273 | 354 ft | 0 kts | 134° |
| 2026-04-21 17:01 | 51.89439 | 0.25311 | 347 ft | 10 kts | 135° |
| 2026-04-21 17:02 | 51.89426 | 0.25332 | 352 ft | 0 kts | 135° |
| 2026-04-21 17:02 | 51.89420 | 0.25340 | 353 ft | 6 kts | 144° |